Time;durP1;ratioP1;P1;durP2;ratioP2;P2;SDS_P1;SDS_P2;PMS_P1;PMS_P2;Temp;Humidity;BMP_temperature;BMP_pressure;BME280_temperature;BME280_humidity;BME280_pressure;Samples;Min_cycle;Max_cycle;Signal;HPM_P1;HPM_P2
2023/04/25 04:02:55;;;;;;;0.50;0.10;;;10.20;99.90;;;;;;4867439;29;20485;-72
2023/04/25 04:05:23;;;;;;;0.50;0.10;;;10.10;99.90;;;;;;4873756;29;20530;-72
2023/04/25 04:07:51;;;;;;;0.50;0.10;;;10.10;99.90;;;;;;4882259;29;20538;-73
2023/04/25 04:10:19;;;;;;;0.50;0.10;;;10.10;99.90;;;;;;4883307;29;20456;-73
2023/04/25 04:12:47;;;;;;;0.50;0.10;;;10.10;99.90;;;;;;4887495;29;20478;-73
2023/04/25 04:15:15;;;;;;;0.57;0.13;;;10.10;99.90;;;;;;4886452;29;21123;-73
2023/04/25 04:17:42;;;;;;;0.50;0.10;;;10.10;99.90;;;;;;4883511;29;20948;-73
2023/04/25 04:20:12;;;;;;;0.50;0.10;;;10.10;99.90;;;;;;4881038;29;20489;-74
2023/04/25 04:22:40;;;;;;;0.50;0.13;;;10.00;99.90;;;;;;4867508;29;20487;-72
2023/04/25 04:25:09;;;;;;;0.50;0.10;;;10.00;99.90;;;;;;4870578;29;20458;-73
2023/04/25 04:27:38;;;;;;;0.50;0.10;;;10.00;99.90;;;;;;4879940;29;20490;-74
2023/04/25 04:30:07;;;;;;;0.50;0.10;;;10.00;99.90;;;;;;4871463;29;20479;-75
2023/04/25 04:32:37;;;;;;;0.50;0.10;;;10.00;99.90;;;;;;4864781;29;20468;-74
2023/04/25 04:35:06;;;;;;;0.50;0.20;;;;;;;;;;4871759;29;20456;-72
2023/04/25 04:37:36;;;;;;;0.50;0.20;;;9.80;99.90;;;;;;4861846;29;20819;-73
2023/04/25 04:40:05;;;;;;;0.60;0.27;;;9.70;99.90;;;;;;4859648;29;20499;-73
2023/04/25 04:42:33;;;;;;;0.50;0.10;;;9.70;99.90;;;;;;4869163;29;20890;-74
2023/04/25 04:45:01;;;;;;;0.50;0.20;;;9.70;99.90;;;;;;4875050;29;20472;-73
2023/04/25 04:47:31;;;;;;;0.50;0.10;;;;;;;;;;4878953;29;20456;-73
2023/04/25 04:49:58;;;;;;;0.50;0.10;;;9.60;99.90;;;;;;4873882;29;21136;-74
2023/04/25 04:52:26;;;;;;;0.53;0.10;;;9.50;99.90;;;;;;4872284;29;20581;-74
2023/04/25 04:54:56;;;;;;;0.50;0.10;;;9.60;99.90;;;;;;4871695;29;20512;-74
2023/04/25 04:57:23;;;;;;;0.60;0.20;;;9.50;99.90;;;;;;4867100;29;20451;-75
2023/04/25 04:59:51;;;;;;;0.50;0.10;;;9.40;99.90;;;;;;4863019;29;20456;-74
2023/04/25 05:02:19;;;;;;;1.23;1.03;;;9.30;99.90;;;;;;4861013;29;20492;-73
2023/04/25 05:04:47;;;;;;;0.50;0.10;;;9.30;99.90;;;;;;4860879;29;20989;-73
2023/04/25 05:07:15;;;;;;;0.50;0.10;;;9.30;99.90;;;;;;4861047;29;20955;-74
2023/04/25 05:09:43;;;;;;;0.70;0.50;;;9.30;99.90;;;;;;4861710;29;20457;-73
2023/04/25 05:12:13;;;;;;;0.60;0.40;;;9.20;99.90;;;;;;4861604;29;20551;-74
2023/04/25 05:14:41;;;;;;;3.80;1.37;;;9.20;99.90;;;;;;4860883;29;21014;-73
2023/04/25 05:17:09;;;;;;;0.50;0.10;;;9.20;99.90;;;;;;4861806;29;20464;-74
2023/04/25 05:19:37;;;;;;;2.37;2.17;;;9.20;99.90;;;;;;4861096;29;20455;-73
2023/04/25 05:22:04;;;;;;;0.53;0.27;;;9.10;99.90;;;;;;4862080;29;20504;-74
2023/04/25 05:24:32;;;;;;;0.50;0.10;;;9.10;99.90;;;;;;4861517;29;20468;-74
2023/04/25 05:27:00;;;;;;;0.57;0.10;;;9.10;99.90;;;;;;4861351;29;20459;-75
2023/04/25 05:29:29;;;;;;;0.50;0.20;;;9.10;99.90;;;;;;4861182;29;20464;-74
2023/04/25 05:31:57;;;;;;;0.50;0.10;;;9.20;99.90;;;;;;4861138;29;20464;-74
2023/04/25 05:34:25;;;;;;;0.60;0.20;;;9.20;99.90;;;;;;4861547;29;20481;-74
2023/04/25 05:36:53;;;;;;;0.50;0.20;;;9.20;99.90;;;;;;4861183;29;20967;-74
2023/04/25 05:39:21;;;;;;;0.60;0.30;;;9.30;99.90;;;;;;4861574;29;20455;-73
2023/04/25 05:41:49;;;;;;;0.50;0.10;;;9.30;99.90;;;;;;4861104;29;20483;-73
2023/04/25 05:44:17;;;;;;;0.50;0.10;;;9.40;99.90;;;;;;4861032;29;20542;-73
2023/04/25 05:46:46;;;;;;;0.50;0.10;;;9.40;99.90;;;;;;4859743;29;20480;-73
2023/04/25 05:49:14;;;;;;;0.50;0.10;;;9.50;99.90;;;;;;4854178;29;20460;-72
2023/04/25 05:51:45;;;;;;;0.50;0.10;;;9.60;99.90;;;;;;4854122;29;20909;-74
2023/04/25 05:54:13;;;;;;;0.50;0.10;;;9.60;99.90;;;;;;4873918;29;20941;-73
2023/04/25 05:56:41;;;;;;;0.50;0.10;;;9.70;99.90;;;;;;4877379;29;20455;-74
2023/04/25 05:59:09;;;;;;;0.50;0.10;;;9.70;99.90;;;;;;4866122;29;20460;-74
2023/04/25 06:01:37;;;;;;;0.50;0.10;;;9.80;99.90;;;;;;4866469;29;20908;-74
2023/04/25 06:04:06;;;;;;;0.50;0.10;;;9.80;99.90;;;;;;4864950;29;20459;-75
2023/04/25 06:06:34;;;;;;;1.43;1.33;;;9.80;99.90;;;;;;4876044;29;21092;-74
2023/04/25 06:09:03;;;;;;;0.50;0.10;;;;;;;;;;4877736;29;20815;-74
2023/04/25 06:11:30;;;;;;;0.60;0.10;;;9.90;99.90;;;;;;4879644;29;20476;-74
2023/04/25 06:13:58;;;;;;;0.50;0.10;;;9.90;99.90;;;;;;4873912;29;20480;-74
2023/04/25 06:16:26;;;;;;;0.50;0.10;;;9.90;99.90;;;;;;4862850;29;20459;-76
2023/04/25 06:18:54;;;;;;;0.50;0.10;;;10.00;99.90;;;;;;4861660;29;20463;-74
2023/04/25 06:21:23;;;;;;;0.60;0.10;;;10.10;99.90;;;;;;4861299;29;20494;-75
2023/04/25 06:23:51;;;;;;;0.60;0.10;;;10.10;99.90;;;;;;4860700;29;20534;-75
2023/04/25 06:26:20;;;;;;;0.50;0.10;;;10.10;99.90;;;;;;4862353;29;20534;-74
2023/04/25 06:28:48;;;;;;;0.50;0.10;;;;;;;;;;4861721;29;20456;-75
2023/04/25 06:31:16;;;;;;;0.50;0.10;;;10.10;99.90;;;;;;4866256;29;20510;-75
2023/04/25 06:33:44;;;;;;;0.50;0.10;;;10.10;99.90;;;;;;4870067;29;20456;-74
2023/04/25 06:36:12;;;;;;;0.50;0.10;;;10.10;99.90;;;;;;4870878;29;20489;-74
2023/04/25 06:38:41;;;;;;;0.60;0.10;;;10.10;99.90;;;;;;4862519;29;20451;-74
2023/04/25 06:41:09;;;;;;;0.50;0.10;;;10.20;99.90;;;;;;4861759;29;20575;-75
2023/04/25 06:43:37;;;;;;;0.60;0.10;;;10.20;99.90;;;;;;4860863;29;20582;-74
2023/04/25 06:46:05;;;;;;;0.50;0.10;;;10.30;99.90;;;;;;4861159;29;20455;-74
2023/04/25 06:48:33;;;;;;;0.50;0.10;;;10.30;99.90;;;;;;4860437;29;20472;-75
2023/04/25 06:51:01;;;;;;;0.60;0.10;;;10.40;99.90;;;;;;4861197;29;20479;-74
2023/04/25 06:53:28;;;;;;;0.83;0.70;;;10.50;99.90;;;;;;4863833;29;20800;-74
2023/04/25 06:55:58;;;;;;;0.50;0.10;;;10.60;99.90;;;;;;4861381;29;20606;-74
2023/04/25 06:58:26;;;;;;;0.60;0.10;;;10.60;99.90;;;;;;4862625;29;20463;-74
2023/04/25 07:00:54;;;;;;;0.60;0.10;;;10.50;99.90;;;;;;4864588;29;20484;-74
2023/04/25 07:03:21;;;;;;;0.50;0.10;;;10.70;99.90;;;;;;4864037;29;20490;-74
2023/04/25 07:05:50;;;;;;;0.60;0.10;;;10.80;99.90;;;;;;4864622;29;20479;-74
2023/04/25 07:08:18;;;;;;;0.60;0.10;;;10.90;99.90;;;;;;4864140;29;20455;-74
2023/04/25 07:10:45;;;;;;;0.60;0.10;;;11.20;99.90;;;;;;4863998;29;20445;-75
2023/04/25 07:13:17;;;;;;;0.60;0.10;;;11.00;99.90;;;;;;4863892;29;20502;-73
2023/04/25 07:15:47;;;;;;;0.60;0.10;;;11.00;99.90;;;;;;4867460;29;20817;-74
2023/04/25 07:18:15;;;;;;;0.60;0.10;;;11.00;99.90;;;;;;4869326;29;20440;-74
2023/04/25 07:20:42;;;;;;;0.60;0.10;;;11.00;99.90;;;;;;4868035;29;20870;-74
2023/04/25 07:23:10;;;;;;;0.60;0.13;;;11.00;99.90;;;;;;4866082;29;20488;-74
2023/04/25 07:25:38;;;;;;;0.60;0.10;;;11.10;99.90;;;;;;4864593;29;20447;-74
2023/04/25 07:28:06;;;;;;;0.60;0.10;;;11.00;99.90;;;;;;4863828;29;20464;-74
2023/04/25 07:30:36;;;;;;;0.63;0.50;;;11.00;99.90;;;;;;4864018;29;20959;-74
2023/04/25 07:33:04;;;;;;;0.60;0.10;;;11.00;99.90;;;;;;4871535;29;20817;-74
2023/04/25 07:35:32;;;;;;;0.60;0.10;;;11.00;99.90;;;;;;4863312;29;20459;-74
2023/04/25 07:38:00;;;;;;;0.60;0.10;;;11.10;99.90;;;;;;4863279;29;20451;-74
2023/04/25 07:40:28;;;;;;;0.60;0.10;;;;;;;;;;4863103;29;20839;-74
2023/04/25 07:42:56;;;;;;;0.50;0.10;;;11.10;99.90;;;;;;4862613;29;21073;-75
2023/04/25 07:45:24;;;;;;;0.60;0.10;;;11.00;99.90;;;;;;4862737;29;20482;-75
2023/04/25 07:47:53;;;;;;;0.60;0.10;;;11.10;99.90;;;;;;4863306;29;20459;-75
2023/04/25 07:50:21;;;;;;;0.60;0.10;;;11.10;99.90;;;;;;4863595;29;20455;-75
2023/04/25 07:52:49;;;;;;;0.60;0.10;;;11.10;99.90;;;;;;4863435;29;20466;-73
2023/04/25 07:55:17;;;;;;;0.60;0.10;;;11.10;99.90;;;;;;4865931;29;20460;-74
2023/04/25 07:57:45;;;;;;;0.60;0.10;;;11.10;99.90;;;;;;4869300;29;20938;-74
2023/04/25 08:00:14;;;;;;;0.60;0.23;;;11.20;99.90;;;;;;4866436;29;20939;-75
2023/04/25 08:02:42;;;;;;;0.60;0.10;;;11.10;99.90;;;;;;4867277;29;21012;-74
2023/04/25 08:05:14;;;;;;;0.60;0.10;;;11.10;99.90;;;;;;4867717;29;20622;-74
2023/04/25 08:07:43;;;;;;;0.60;0.10;;;11.20;99.90;;;;;;4867606;29;20524;-74
2023/04/25 08:10:11;;;;;;;0.60;0.20;;;11.20;99.90;;;;;;4864840;29;20568;-74
2023/04/25 08:12:39;;;;;;;0.60;0.10;;;11.30;99.90;;;;;;4862882;29;20475;-74
2023/04/25 08:15:08;;;;;;;0.60;0.10;;;11.30;99.90;;;;;;4869816;29;20504;-74
2023/04/25 08:17:36;;;;;;;0.60;0.10;;;11.40;99.90;;;;;;4881754;29;20526;-74
2023/04/25 08:20:06;;;;;;;0.60;0.10;;;11.40;99.90;;;;;;4882735;29;20512;-74
2023/04/25 08:22:35;;;;;;;0.60;0.20;;;11.40;99.90;;;;;;4883212;29;20995;-74
2023/04/25 08:25:03;;;;;;;0.60;0.10;;;11.60;99.90;;;;;;4882081;29;20471;-73
2023/04/25 08:27:31;;;;;;;0.60;0.20;;;11.20;99.90;;;;;;4881955;29;20460;-73
2023/04/25 08:29:59;;;;;;;0.60;0.10;;;11.20;99.90;;;;;;4881496;29;20829;-72
2023/04/25 08:32:27;;;;;;;0.60;0.30;;;11.10;99.90;;;;;;4881799;29;20495;-72
2023/04/25 08:34:57;;;;;;;0.60;0.10;;;11.10;99.90;;;;;;4865139;29;20452;-74
2023/04/25 08:37:25;;;;;;;0.83;0.60;;;11.10;99.90;;;;;;4862350;29;20455;-74
2023/04/25 08:39:56;;;;;;;0.70;0.20;;;11.00;99.90;;;;;;4861753;29;20455;-74
2023/04/25 08:42:25;;;;;;;0.60;0.20;;;10.90;99.90;;;;;;4861867;29;20519;-74
2023/04/25 08:44:55;;;;;;;3.20;0.60;;;11.00;99.90;;;;;;4861396;29;20455;-74
2023/04/25 08:47:23;;;;;;;0.60;0.10;;;10.90;99.90;;;;;;4861679;29;20466;-74
2023/04/25 08:49:54;;;;;;;0.60;0.10;;;10.90;99.90;;;;;;4860721;29;20460;-74
2023/04/25 08:52:24;;;;;;;0.60;0.10;;;10.90;99.90;;;;;;4860150;29;20513;-73
2023/04/25 08:54:55;;;;;;;0.60;0.30;;;11.00;99.90;;;;;;4859712;29;20546;-73
2023/04/25 08:57:23;;;;;;;0.60;0.10;;;11.00;99.90;;;;;;4860995;29;20466;-73
2023/04/25 08:59:53;;;;;;;1.03;0.50;;;11.10;99.90;;;;;;4860647;29;20456;-74
2023/04/25 09:02:21;;;;;;;0.57;0.10;;;11.10;99.90;;;;;;4860203;29;20492;-74
2023/04/25 09:04:50;;;;;;;0.60;0.10;;;;;;;;;;4860550;29;20613;-73
2023/04/25 09:07:20;;;;;;;0.60;0.10;;;11.30;99.90;;;;;;4861775;29;20452;-74
2023/04/25 09:09:48;;;;;;;0.60;0.10;;;11.50;99.90;;;;;;4861298;29;20462;-73
2023/04/25 09:12:19;;;;;;;0.60;0.10;;;11.60;99.90;;;;;;4861416;29;20932;-73
2023/04/25 09:15:03;;;;;;;0.70;0.47;;;11.70;99.90;;;;;;4861137;29;20457;-74
2023/04/25 09:17:31;;;;;;;2.10;2.00;;;11.60;99.90;;;;;;4861311;29;20462;-73
2023/04/25 09:20:10;;;;;;;1.60;1.50;;;11.70;99.90;;;;;;4861026;29;20454;-73
2023/04/25 09:22:39;;;;;;;0.60;0.20;;;11.80;99.90;;;;;;4860451;29;20472;-74
2023/04/25 09:25:11;;;;;;;0.70;0.67;;;11.90;99.90;;;;;;4860925;29;20447;-73
2023/04/25 09:27:52;;;;;;;1.10;0.53;;;11.80;99.90;;;;;;4860754;29;20452;-73
2023/04/25 09:30:29;;;;;;;0.60;0.10;;;11.90;99.90;;;;;;4861963;29;20893;-74
2023/04/25 09:32:58;;;;;;;0.93;0.93;;;11.90;99.90;;;;;;4860956;29;20467;-75
2023/04/25 09:35:26;;;;;;;0.60;0.10;;;11.90;99.90;;;;;;4842472;29;20497;-74
2023/04/25 09:37:55;;;;;;;0.60;0.10;;;11.90;99.90;;;;;;4842893;29;20839;-74
2023/04/25 09:40:23;;;;;;;0.80;0.30;;;11.90;99.90;;;;;;4843162;29;20456;-74
2023/04/25 09:42:52;;;;;;;0.60;0.20;;;11.90;99.90;;;;;;4842171;29;20493;-72
2023/04/25 09:45:21;;;;;;;2.00;1.90;;;12.00;99.90;;;;;;4841958;29;20452;-74
2023/04/25 09:47:49;;;;;;;2.30;0.67;;;12.10;99.90;;;;;;4842244;29;20445;-73
2023/04/25 09:50:19;;;;;;;0.60;0.10;;;12.10;99.90;;;;;;4842024;29;20457;-74
2023/04/25 09:53:02;;;;;;;1.20;0.53;;;12.20;99.90;;;;;;4842403;29;20512;-74
2023/04/25 09:55:31;;;;;;;0.60;0.10;;;12.20;99.90;;;;;;4842104;29;20917;-74
2023/04/25 09:58:06;;;;;;;4.40;1.90;;;12.20;99.90;;;;;;4842105;29;20453;-73
2023/04/25 10:00:35;;;;;;;0.70;0.20;;;12.20;99.90;;;;;;4841841;29;20457;-73
2023/04/25 10:03:04;;;;;;;0.60;0.33;;;12.20;99.90;;;;;;4841460;29;20458;-73
2023/04/25 10:05:35;;;;;;;0.93;0.57;;;12.20;99.90;;;;;;4842014;29;20450;-73
2023/04/25 10:08:04;;;;;;;0.60;0.10;;;12.20;99.90;;;;;;4842477;29;20495;-73
2023/04/25 10:10:35;;;;;;;0.60;0.13;;;12.30;99.90;;;;;;4842545;29;20468;-75
2023/04/25 10:13:07;;;;;;;0.60;0.10;;;12.30;99.90;;;;;;4841694;29;20456;-74
2023/04/25 10:15:37;;;;;;;0.60;0.10;;;12.30;99.90;;;;;;4842247;29;20979;-74
2023/04/25 10:18:07;;;;;;;0.60;0.10;;;12.20;99.90;;;;;;4841914;29;20454;-71
2023/04/25 10:20:36;;;;;;;0.60;0.20;;;12.20;99.90;;;;;;4841712;29;20446;-74
2023/04/25 10:23:09;;;;;;;1.03;0.63;;;12.20;99.90;;;;;;4841681;29;20458;-73
2023/04/25 10:25:37;;;;;;;0.60;0.20;;;12.20;99.90;;;;;;4841618;29;20544;-73
2023/04/25 10:28:07;;;;;;;0.70;0.37;;;12.30;99.90;;;;;;4841709;29;20458;-73
2023/04/25 10:30:35;;;;;;;0.70;0.37;;;12.30;99.90;;;;;;4841611;29;20467;-72
2023/04/25 10:33:16;;;;;;;1.20;0.40;;;12.20;99.90;;;;;;4842373;29;20828;-72
2023/04/25 10:35:46;;;;;;;0.97;0.57;;;12.00;99.90;;;;;;4861968;29;20479;-73
2023/04/25 10:38:15;;;;;;;0.60;0.20;;;11.90;99.90;;;;;;4860726;29;20619;-73
2023/04/25 10:41:03;;;;;;;0.60;0.20;;;11.80;99.90;;;;;;4860559;29;20475;-74
2023/04/25 10:43:37;;;;;;;0.87;0.37;;;11.70;99.90;;;;;;4859942;29;20458;-74
2023/04/25 10:46:17;;;;;;;0.60;0.10;;;11.60;99.90;;;;;;4860491;29;20458;-74
2023/04/25 10:48:48;;;;;;;0.70;0.40;;;11.50;99.90;;;;;;4860544;29;20534;-74
2023/04/25 10:51:22;;;;;;;0.60;0.20;;;11.50;99.90;;;;;;4860377;29;20541;-74
2023/04/25 10:54:00;;;;;;;0.60;0.20;;;11.40;99.90;;;;;;4859533;29;20451;-73
2023/04/25 10:56:31;;;;;;;0.60;0.10;;;11.40;99.90;;;;;;4861292;29;20513;-72
2023/04/25 10:59:11;;;;;;;1.00;0.90;;;11.40;99.90;;;;;;4863528;29;20479;-73
2023/04/25 11:01:41;;;;;;;0.60;0.10;;;11.40;99.90;;;;;;4866478;29;21043;-72
2023/04/25 11:04:21;;;;;;;0.60;0.10;;;11.30;99.90;;;;;;4865789;29;20483;-74
2023/04/25 11:07:03;;;;;;;0.60;0.10;;;11.40;99.90;;;;;;4864999;29;20552;-74
2023/04/25 11:09:35;;;;;;;0.60;0.10;;;11.40;99.90;;;;;;4865235;29;20464;-72
2023/04/25 11:12:03;;;;;;;0.60;0.10;;;11.60;99.90;;;;;;4866308;29;20479;-73
2023/04/25 11:14:32;;;;;;;0.60;0.10;;;11.80;99.90;;;;;;4864277;29;20831;-73
2023/04/25 11:17:01;;;;;;;0.90;0.73;;;11.80;99.90;;;;;;4865508;29;20545;-73
2023/04/25 11:19:30;;;;;;;0.60;0.20;;;11.90;99.90;;;;;;4865620;29;20451;-72
2023/04/25 11:21:59;;;;;;;0.60;0.10;;;11.90;99.90;;;;;;4865398;29;20499;-72
2023/04/25 11:24:28;;;;;;;0.60;0.23;;;12.00;99.90;;;;;;4865415;29;20529;-73
2023/04/25 11:26:56;;;;;;;0.60;0.10;;;12.00;99.90;;;;;;4865007;29;20444;-74
2023/04/25 11:29:24;;;;;;;0.60;0.10;;;12.00;99.90;;;;;;4863997;29;20447;-73
2023/04/25 11:31:55;;;;;;;0.60;0.10;;;11.90;99.90;;;;;;4865912;29;20472;-73
2023/04/25 11:34:24;;;;;;;0.60;0.10;;;11.80;99.90;;;;;;4865899;29;20524;-74
2023/04/25 11:36:53;;;;;;;0.60;0.10;;;11.80;99.90;;;;;;4865879;29;20451;-72
2023/04/25 11:39:21;;;;;;;0.60;0.10;;;11.80;99.90;;;;;;4865338;29;20512;-72
2023/04/25 11:41:50;;;;;;;0.60;0.10;;;11.80;99.90;;;;;;4861288;29;20469;-72
2023/04/25 11:44:19;;;;;;;0.60;0.10;;;11.90;99.90;;;;;;4862444;29;20845;-72
2023/04/25 11:46:48;;;;;;;0.60;0.10;;;12.00;99.90;;;;;;4864906;29;20515;-74
2023/04/25 11:49:17;;;;;;;0.60;0.10;;;12.20;99.90;;;;;;4865741;29;20459;-71
2023/04/25 11:51:48;;;;;;;0.60;0.10;;;12.30;99.90;;;;;;4865649;29;21068;-73
2023/04/25 11:54:16;;;;;;;0.60;0.20;;;12.40;99.90;;;;;;4864871;29;20461;-73
2023/04/25 11:56:45;;;;;;;0.70;0.30;;;12.50;99.90;;;;;;4863603;29;20543;-72
2023/04/25 11:59:14;;;;;;;0.60;0.10;;;12.50;99.90;;;;;;4863319;29;20457;-73
2023/04/25 12:01:49;;;;;;;0.60;0.10;;;12.50;99.90;;;;;;4863082;29;20477;-73
2023/04/25 12:04:21;;;;;;;0.60;0.10;;;12.50;99.90;;;;;;4862974;29;20515;-75
2023/04/25 12:06:52;;;;;;;0.60;0.20;;;15.70;99.90;;;;;;4863016;29;20464;-72
2023/04/25 12:09:22;;;;;;;0.60;0.10;;;12.30;99.90;;;;;;4864148;29;20825;-74
2023/04/25 12:11:54;;;;;;;0.60;0.20;;;12.20;99.90;;;;;;4862448;29;20561;-73
2023/04/25 12:14:23;;;;;;;1.17;0.93;;;12.10;99.90;;;;;;4862439;29;20809;-72
2023/04/25 12:16:52;;;;;;;0.80;0.37;;;12.00;99.90;;;;;;4862740;29;20552;-74
2023/04/25 12:19:22;;;;;;;0.60;0.10;;;;;;;;;;4862943;29;20543;-74
2023/04/25 12:21:50;;;;;;;0.60;0.10;;;11.90;99.90;;;;;;4862572;29;20998;-73
2023/04/25 12:24:27;;;;;;;0.60;0.10;;;11.90;99.90;;;;;;4862824;29;20463;-73
2023/04/25 12:27:02;;;;;;;0.60;0.27;;;11.90;99.90;;;;;;4863641;29;20457;-74
2023/04/25 12:29:31;;;;;;;0.60;0.10;;;8.30;99.90;;;;;;4862682;29;20480;-73
2023/04/25 12:32:15;;;;;;;0.60;0.20;;;11.80;99.90;;;;;;4862045;29;20582;-74
2023/04/25 12:34:45;;;;;;;0.60;0.10;;;11.90;99.90;;;;;;4861881;29;20459;-74
2023/04/25 12:37:13;;;;;;;0.60;0.17;;;11.90;99.90;;;;;;4862560;29;20829;-73
2023/04/25 12:39:40;;;;;;;0.60;0.10;;;11.90;99.90;;;;;;4862042;29;20456;-73
2023/04/25 12:42:11;;;;;;;1.17;0.70;;;12.00;99.90;;;;;;4862079;29;20543;-74
2023/04/25 12:44:39;;;;;;;1.17;0.40;;;11.90;99.90;;;;;;4861654;29;20492;-74
2023/04/25 12:47:07;;;;;;;0.60;0.20;;;12.00;99.90;;;;;;4862061;29;20875;-73
2023/04/25 12:49:35;;;;;;;0.60;0.10;;;12.10;99.90;;;;;;4861853;29;20464;-74
2023/04/25 12:52:04;;;;;;;1.23;0.87;;;12.20;99.90;;;;;;4862256;29;20568;-73
2023/04/25 12:54:32;;;;;;;0.60;0.10;;;12.30;99.90;;;;;;4861701;29;20451;-75
2023/04/25 12:57:02;;;;;;;0.63;0.27;;;12.40;99.90;;;;;;4862576;29;20970;-74
2023/04/25 12:59:30;;;;;;;0.90;0.77;;;12.50;99.90;;;;;;4864790;29;20473;-72
2023/04/25 13:01:58;;;;;;;0.60;0.10;;;12.50;99.90;;;;;;4865760;29;20527;-73
2023/04/25 13:04:26;;;;;;;0.90;0.40;;;12.60;99.90;;;;;;4862042;29;20463;-73
2023/04/25 13:06:55;;;;;;;2.10;0.77;;;12.60;99.90;;;;;;4861404;29;20488;-73
2023/04/25 13:09:24;;;;;;;0.67;0.37;;;12.60;99.90;;;;;;4861589;29;20460;-72
2023/04/25 13:11:53;;;;;;;0.60;0.20;;;12.60;99.90;;;;;;4861641;29;20473;-72
2023/04/25 13:14:25;;;;;;;0.60;0.13;;;12.60;99.90;;;;;;4861085;29;20460;-74
2023/04/25 13:16:53;;;;;;;0.60;0.27;;;12.60;99.90;;;;;;4861804;29;20451;-73
2023/04/25 13:19:22;;;;;;;0.60;0.30;;;12.50;99.90;;;;;;4861496;29;20546;-72
2023/04/25 13:21:50;;;;;;;0.80;0.50;;;12.60;99.90;;;;;;4861469;29;20482;-73
2023/04/25 13:24:18;;;;;;;0.60;0.20;;;12.60;99.90;;;;;;4860911;29;20516;-74
2023/04/25 13:26:47;;;;;;;0.60;0.10;;;12.60;99.90;;;;;;4860975;29;20589;-74
2023/04/25 13:29:15;;;;;;;0.60;0.20;;;12.70;99.90;;;;;;4860849;29;20453;-74
2023/04/25 13:31:43;;;;;;;2.63;1.50;;;12.70;99.90;;;;;;4861128;29;20466;-72
2023/04/25 13:34:12;;;;;;;0.60;0.20;;;12.70;99.90;;;;;;4861939;29;20463;-72
2023/04/25 13:36:40;;;;;;;0.60;0.30;;;12.80;99.90;;;;;;4862079;29;20450;-73
2023/04/25 13:39:08;;;;;;;0.60;0.10;;;12.90;99.90;;;;;;4860797;29;20456;-74
2023/04/25 13:41:40;;;;;;;0.87;0.20;;;12.90;99.90;;;;;;4860352;29;20577;-74
2023/04/25 13:44:09;;;;;;;0.60;0.10;;;12.70;97.50;;;;;;4860659;29;20460;-72
2023/04/25 13:46:38;;;;;;;0.60;0.20;;;12.70;99.30;;;;;;4860492;29;20495;-73
2023/04/25 13:49:09;;;;;;;0.60;0.10;;;12.70;99.90;;;;;;4860606;29;20492;-72
2023/04/25 13:51:40;;;;;;;0.60;0.10;;;12.70;97.20;;;;;;4860733;29;21013;-74
2023/04/25 13:54:08;;;;;;;0.60;0.20;;;12.80;97.30;;;;;;4860460;29;20537;-73
2023/04/25 13:56:36;;;;;;;0.60;0.10;;;12.70;97.90;;;;;;4861238;29;20868;-74
2023/04/25 13:59:04;;;;;;;5.13;0.80;;;12.70;99.10;;;;;;4863471;29;20458;-74
2023/04/25 14:01:35;;;;;;;0.60;0.10;;;12.70;98.30;;;;;;4860418;29;20486;-74
2023/04/25 14:04:03;;;;;;;0.60;0.10;;;12.70;99.10;;;;;;4860645;29;20527;-73
2023/04/25 14:06:32;;;;;;;0.60;0.10;;;12.70;99.90;;;;;;4870028;29;20481;-73
2023/04/25 14:09:01;;;;;;;1.27;0.50;;;12.80;99.90;;;;;;4860333;29;20455;-72
2023/04/25 14:11:29;;;;;;;0.70;0.30;;;13.00;99.90;;;;;;4864000;29;20985;-74
2023/04/25 14:13:57;;;;;;;1.20;0.40;;;13.10;98.20;;;;;;4870541;29;20516;-73
2023/04/25 14:16:25;;;;;;;0.60;0.10;;;13.10;99.90;;;;;;4871102;29;20451;-73
2023/04/25 14:18:55;;;;;;;0.60;0.10;;;13.30;95.30;;;;;;4868089;29;20455;-73
2023/04/25 14:21:23;;;;;;;2.20;2.10;;;13.30;95.40;;;;;;4862512;29;20481;-72
2023/04/25 14:23:51;;;;;;;0.60;0.10;;;13.40;95.80;;;;;;4861515;29;20455;-74
2023/04/25 14:26:19;;;;;;;0.60;0.10;;;13.50;94.90;;;;;;4860258;29;21088;-73
2023/04/25 14:28:47;;;;;;;0.70;0.43;;;;;;;;;;4860009;29;20548;-72
2023/04/25 14:31:15;;;;;;;0.93;0.93;;;13.20;90.90;;;;;;4860373;29;20843;-74
2023/04/25 14:33:43;;;;;;;0.70;0.50;;;13.20;96.50;;;;;;4859770;29;20505;-74
2023/04/25 14:36:14;;;;;;;0.60;0.10;;;13.20;91.50;;;;;;4860505;29;20436;-73
2023/04/25 14:38:41;;;;;;;0.60;0.10;;;13.30;91.60;;;;;;4860892;29;20457;-71
2023/04/25 14:41:10;;;;;;;0.60;0.10;;;13.30;91.00;;;;;;4861006;29;20484;-73
2023/04/25 14:43:39;;;;;;;0.60;0.10;;;13.10;85.50;;;;;;4860964;29;20529;-73
2023/04/25 14:46:07;;;;;;;0.60;0.10;;;13.00;87.40;;;;;;4861266;29;20494;-72
2023/04/25 14:48:35;;;;;;;0.60;0.10;;;13.00;84.90;;;;;;4861248;29;20521;-73
2023/04/25 14:51:04;;;;;;;0.60;0.20;;;13.00;84.30;;;;;;4860390;29;20571;-72
2023/04/25 14:53:33;;;;;;;0.60;0.20;;;12.90;91.80;;;;;;4860051;29;20456;-73
2023/04/25 14:56:01;;;;;;;0.60;0.10;;;12.70;82.50;;;;;;4859558;29;20450;-72
2023/04/25 14:58:29;;;;;;;0.60;0.20;;;12.70;83.70;;;;;;4860218;29;20460;-73
2023/04/25 15:00:57;;;;;;;0.60;0.10;;;;;;;;;;4860238;29;20487;-74
2023/04/25 15:03:25;;;;;;;0.60;0.20;;;12.70;83.60;;;;;;4860657;29;20457;-74
2023/04/25 15:05:54;;;;;;;0.60;0.20;;;12.60;85.40;;;;;;4860252;29;20469;-72
2023/04/25 15:08:22;;;;;;;0.60;0.20;;;12.60;86.00;;;;;;4859637;29;20983;-74
2023/04/25 15:10:51;;;;;;;0.60;0.10;;;12.60;88.70;;;;;;4860285;29;20483;-74
2023/04/25 15:13:20;;;;;;;0.60;0.23;;;12.70;89.90;;;;;;4859692;29;20456;-73
2023/04/25 15:15:50;;;;;;;0.60;0.20;;;12.60;90.40;;;;;;4859908;29;20783;-73
2023/04/25 15:18:21;;;;;;;0.60;0.10;;;12.60;90.40;;;;;;4860734;29;20961;-72
2023/04/25 15:20:50;;;;;;;0.60;0.10;;;12.60;89.00;;;;;;4861627;29;20477;-74
2023/04/25 15:23:18;;;;;;;0.60;0.20;;;12.60;85.90;;;;;;4863689;29;20452;-74
2023/04/25 15:25:46;;;;;;;0.60;0.10;;;12.60;85.40;;;;;;4863792;29;20522;-75
2023/04/25 15:28:15;;;;;;;0.60;0.10;;;12.50;84.50;;;;;;4863660;29;21001;-74
2023/04/25 15:30:43;;;;;;;0.60;0.10;;;12.30;84.50;;;;;;4864123;29;20455;-73
2023/04/25 15:33:11;;;;;;;0.60;0.20;;;12.70;85.60;;;;;;4863653;29;20482;-74
2023/04/25 15:35:40;;;;;;;1.07;0.97;;;12.80;89.20;;;;;;4864771;29;20462;-74
2023/04/25 15:38:10;;;;;;;0.60;0.20;;;13.00;90.30;;;;;;4864471;29;20474;-74
2023/04/25 15:40:38;;;;;;;1.77;0.87;;;13.30;90.70;;;;;;4864366;29;20620;-74
2023/04/25 15:43:06;;;;;;;0.60;0.20;;;13.50;91.30;;;;;;4867631;29;20476;-73
2023/04/25 15:45:36;;;;;;;0.60;0.10;;;13.80;91.10;;;;;;4864224;29;20960;-75
2023/04/25 15:48:05;;;;;;;1.00;0.83;;;14.00;89.50;;;;;;4862682;29;20496;-74
2023/04/25 15:50:33;;;;;;;0.60;0.17;;;14.10;90.80;;;;;;4863320;29;20457;-74
2023/04/25 15:53:01;;;;;;;1.23;1.10;;;14.00;90.50;;;;;;4862521;29;21162;-74
2023/04/25 15:55:30;;;;;;;0.60;0.20;;;13.80;90.00;;;;;;4863135;29;20456;-74
2023/04/25 15:57:57;;;;;;;0.60;0.10;;;13.80;89.30;;;;;;4863408;29;20460;-73
2023/04/25 16:00:25;;;;;;;1.07;0.60;;;13.80;88.70;;;;;;4862860;29;20526;-74
2023/04/25 16:02:55;;;;;;;0.60;0.10;;;14.00;89.90;;;;;;4862549;29;20481;-74
2023/04/25 16:05:23;;;;;;;0.60;0.10;;;14.20;87.50;;;;;;4862840;29;20469;-73
2023/04/25 16:07:52;;;;;;;0.93;0.30;;;14.40;78.40;;;;;;4862989;29;20498;-74
2023/04/25 16:10:20;;;;;;;0.60;0.10;;;14.40;79.00;;;;;;4863225;29;20448;-74
2023/04/25 16:12:49;;;;;;;0.70;0.43;;;14.70;74.20;;;;;;4862267;29;21081;-73
2023/04/25 16:15:17;;;;;;;0.60;0.20;;;14.90;73.50;;;;;;4907967;23;20529;-71
2023/04/25 16:17:45;;;;;;;0.80;0.70;;;15.10;73.20;;;;;;4938082;29;20444;-72
2023/04/25 16:20:15;;;;;;;0.60;0.10;;;15.20;68.10;;;;;;4937813;29;20454;-70
2023/04/25 16:22:44;;;;;;;0.60;0.10;;;15.20;68.70;;;;;;4938038;29;20450;-70
2023/04/25 16:25:11;;;;;;;4.83;1.17;;;15.30;65.90;;;;;;4937766;29;21005;-70
2023/04/25 16:27:40;;;;;;;0.60;0.10;;;15.30;67.10;;;;;;4939335;29;20975;-70
2023/04/25 16:30:10;;;;;;;0.60;0.10;;;15.50;65.20;;;;;;4938674;29;20462;-71
2023/04/25 16:32:39;;;;;;;0.60;0.30;;;15.80;63.10;;;;;;4936599;29;20868;-70
2023/04/25 16:35:09;;;;;;;1.00;0.90;;;15.80;60.20;;;;;;4938309;29;20465;-70
2023/04/25 16:37:38;;;;;;;0.60;0.10;;;15.30;61.30;;;;;;4937112;29;20495;-71
2023/04/25 16:40:08;;;;;;;0.60;0.10;;;;;;;;;;4938072;29;20453;-71
2023/04/25 16:42:36;;;;;;;0.60;0.20;;;14.90;63.40;;;;;;4940375;29;20951;-72
2023/04/25 16:45:05;;;;;;;0.60;0.20;;;14.80;65.80;;;;;;4939616;29;20467;-69
2023/04/25 16:47:33;;;;;;;0.60;0.13;;;14.60;67.00;;;;;;4938010;29;20499;-69
2023/04/25 16:50:01;;;;;;;0.60;0.30;;;14.60;78.30;;;;;;4939475;29;20447;-70
2023/04/25 16:52:29;;;;;;;0.60;0.20;;;14.30;66.90;;;;;;4940816;29;20448;-69
2023/04/25 16:54:58;;;;;;;0.70;0.40;;;14.10;66.20;;;;;;4940934;29;20480;-70
2023/04/25 16:57:26;;;;;;;0.60;0.10;;;13.90;67.80;;;;;;4942119;29;20446;-69
2023/04/25 16:59:54;;;;;;;0.60;0.10;;;13.80;65.80;;;;;;4943587;29;20532;-70
2023/04/25 17:02:22;;;;;;;0.60;0.10;;;13.70;68.00;;;;;;4944711;29;20519;-71